Time;durP1;ratioP1;P1;durP2;ratioP2;P2;SDS_P1;SDS_P2;PMS_P1;PMS_P2;Temp;Humidity;BMP_temperature;BMP_pressure;BME280_temperature;BME280_humidity;BME280_pressure;Samples;Min_cycle;Max_cycle;Signal;HPM_P1;HPM_P2
2022/10/09 00:00:44;;;;;;;1.50;0.80;;;17.50;87.20;;;;;;5009530;28;20030;-78
2022/10/09 00:03:10;;;;;;;2.10;1.00;;;17.50;87.20;;;;;;4992391;28;20033;-78
2022/10/09 00:05:36;;;;;;;1.63;0.90;;;17.50;87.20;;;;;;5009754;28;20038;-78
2022/10/09 00:08:01;;;;;;;2.63;1.10;;;17.50;87.20;;;;;;5009664;28;20048;-79
2022/10/09 00:10:27;;;;;;;1.33;0.70;;;17.50;87.20;;;;;;4992376;28;20097;-78
2022/10/09 00:12:52;;;;;;;2.80;0.80;;;17.50;87.20;;;;;;4991750;28;20033;-78
2022/10/09 00:15:18;;;;;;;1.70;0.80;;;17.50;87.00;;;;;;5009390;28;20026;-78
2022/10/09 00:17:44;;;;;;;1.08;0.70;;;17.60;87.10;;;;;;4992470;28;20026;-78
2022/10/09 00:20:09;;;;;;;1.00;0.70;;;17.60;87.00;;;;;;4991796;28;20312;-77
2022/10/09 00:22:35;;;;;;;1.33;0.85;;;17.60;86.90;;;;;;4991359;28;20018;-79
2022/10/09 00:25:00;;;;;;;1.92;0.90;;;17.60;86.90;;;;;;4991587;28;20120;-78
2022/10/09 00:27:26;;;;;;;1.83;0.82;;;17.60;86.80;;;;;;4991895;28;20033;-78
2022/10/09 00:29:51;;;;;;;1.50;0.80;;;17.60;86.90;;;;;;4991708;28;20030;-76
2022/10/09 00:32:17;;;;;;;1.30;0.85;;;17.60;86.90;;;;;;4991589;28;20034;-79
2022/10/09 00:34:43;;;;;;;1.88;0.90;;;17.60;86.90;;;;;;5009347;28;20197;-77
2022/10/09 00:37:09;;;;;;;1.75;0.85;;;17.60;86.90;;;;;;4991646;28;20141;-77
2022/10/09 00:39:35;;;;;;;1.15;0.80;;;17.50;87.00;;;;;;4991687;28;20037;-77
2022/10/09 00:42:01;;;;;;;1.35;0.80;;;17.50;87.10;;;;;;4991094;28;20037;-79
2022/10/09 00:44:56;;;;;;;1.70;0.90;;;17.50;87.10;;;;;;4991502;28;20498;-78
2022/10/09 00:47:46;;;;;;;2.45;1.10;;;17.50;87.10;;;;;;4991663;28;20038;-80
2022/10/09 00:50:33;;;;;;;1.52;0.90;;;17.50;87.10;;;;;;4998857;28;20034;-79
2022/10/09 00:52:59;;;;;;;1.58;0.80;;;17.50;87.20;;;;;;4988002;28;20045;-79
2022/10/09 00:55:27;;;;;;;0.90;0.70;;;17.50;87.20;;;;;;4971424;28;20027;-78
2022/10/09 00:57:54;;;;;;;2.70;1.05;;;17.50;87.30;;;;;;4971885;28;20482;-78
2022/10/09 01:00:21;;;;;;;1.88;0.82;;;17.50;87.30;;;;;;4971749;28;20671;-78
2022/10/09 01:02:46;;;;;;;1.20;0.80;;;17.50;87.30;;;;;;4971753;28;20069;-78
2022/10/09 01:05:13;;;;;;;1.88;0.93;;;17.50;87.30;;;;;;4970831;28;20062;-77
2022/10/09 01:07:53;;;;;;;1.20;0.80;;;17.50;87.30;;;;;;4989028;28;20418;-79
2022/10/09 01:10:28;;;;;;;1.52;0.80;;;17.50;87.20;;;;;;4971562;28;20028;-79
2022/10/09 01:13:29;;;;;;;2.25;1.08;;;17.50;87.60;;;;;;4971004;28;20033;-79
2022/10/09 01:16:02;;;;;;;1.50;0.88;;;17.50;87.10;;;;;;4971465;28;20026;-78
2022/10/09 01:18:52;;;;;;;2.28;0.90;;;17.50;86.90;;;;;;4988963;28;20105;-81
2022/10/09 01:21:45;;;;;;;1.52;0.80;;;17.50;86.80;;;;;;4971579;28;20022;-79
2022/10/09 01:24:29;;;;;;;1.30;0.80;;;17.50;86.80;;;;;;4971398;28;20038;-79
2022/10/09 01:27:15;;;;;;;2.97;1.05;;;17.50;86.70;;;;;;4971447;28;20137;-78
2022/10/09 01:29:47;;;;;;;2.05;0.93;;;17.50;86.90;;;;;;4971041;28;20031;-76
2022/10/09 01:32:18;;;;;;;1.40;0.90;;;17.50;86.70;;;;;;4970574;28;20434;-78
2022/10/09 01:34:45;;;;;;;1.25;0.80;;;17.50;86.80;;;;;;4970403;28;20093;-77
2022/10/09 01:37:12;;;;;;;2.15;1.00;;;17.50;87.00;;;;;;4971200;28;20031;-78
2022/10/09 01:39:40;;;;;;;2.70;1.00;;;17.50;87.00;;;;;;4971357;28;20120;-79
2022/10/09 01:42:06;;;;;;;1.65;0.93;;;17.40;87.00;;;;;;4970538;28;20061;-77
2022/10/09 01:44:32;;;;;;;1.90;0.98;;;17.40;87.10;;;;;;4970953;28;20482;-80
2022/10/09 01:46:58;;;;;;;1.85;1.00;;;17.40;87.10;;;;;;4970884;28;20200;-77
2022/10/09 01:49:37;;;;;;;1.27;1.00;;;17.40;87.10;;;;;;4970843;28;20022;-78
2022/10/09 01:52:12;;;;;;;1.58;1.00;;;17.40;87.20;;;;;;4970472;28;20030;-78
2022/10/09 01:55:16;;;;;;;2.13;1.08;;;17.40;87.30;;;;;;4970546;28;20034;-77
2022/10/09 01:58:00;;;;;;;1.20;0.77;;;17.40;87.20;;;;;;4988226;28;20031;-79
2022/10/09 02:00:27;;;;;;;1.83;0.90;;;17.40;87.30;;;;;;4970646;28;20062;-76
2022/10/09 02:02:55;;;;;;;3.33;1.20;;;17.40;87.30;;;;;;4970236;28;20030;-77
2022/10/09 02:05:24;;;;;;;1.50;1.00;;;17.40;87.30;;;;;;4970582;28;20038;-77
2022/10/09 02:07:50;;;;;;;1.88;0.93;;;17.40;87.10;;;;;;4987759;28;20034;-77
2022/10/09 02:10:18;;;;;;;1.42;0.80;;;17.40;87.00;;;;;;4970466;28;20026;-79
2022/10/09 02:12:49;;;;;;;1.10;0.90;;;17.40;87.00;;;;;;4970047;28;20052;-77
2022/10/09 02:15:15;;;;;;;1.57;0.77;;;17.50;87.00;;;;;;4987850;28;20501;-78
2022/10/09 02:17:47;;;;;;;1.77;0.95;;;17.50;86.90;;;;;;4970339;28;20113;-79
2022/10/09 02:20:26;;;;;;;1.50;0.77;;;17.50;86.90;;;;;;4988066;28;20169;-77
2022/10/09 02:22:54;;;;;;;1.55;0.80;;;17.50;86.80;;;;;;4969905;28;20561;-77
2022/10/09 02:25:20;;;;;;;1.80;0.80;;;17.50;86.90;;;;;;4987843;28;20498;-78
2022/10/09 02:27:46;;;;;;;2.03;0.95;;;17.50;86.90;;;;;;4969963;28;20034;-77
2022/10/09 02:30:13;;;;;;;1.80;1.00;;;17.40;86.70;;;;;;4970576;28;20027;-77
2022/10/09 02:32:39;;;;;;;1.55;0.98;;;17.40;87.00;;;;;;4969954;28;20413;-80
2022/10/09 02:35:05;;;;;;;1.40;0.90;;;17.40;87.00;;;;;;4970138;28;20026;-78
2022/10/09 02:37:31;;;;;;;1.52;0.90;;;17.40;87.00;;;;;;4970144;28;20032;-78
2022/10/09 02:39:57;;;;;;;2.13;1.05;;;17.40;87.00;;;;;;4969843;28;20108;-77
2022/10/09 02:42:24;;;;;;;1.50;0.90;;;17.40;87.10;;;;;;4969546;28;20034;-78
2022/10/09 02:44:50;;;;;;;1.73;0.98;;;17.40;87.10;;;;;;4970152;28;20049;-78
2022/10/09 02:47:16;;;;;;;1.48;0.88;;;17.40;87.10;;;;;;4967034;28;20482;-79
2022/10/09 02:49:41;;;;;;;1.40;0.82;;;17.40;87.20;;;;;;4970019;28;20090;-78
2022/10/09 02:52:07;;;;;;;1.58;0.95;;;17.40;87.30;;;;;;4969286;28;20121;-77
2022/10/09 02:54:32;;;;;;;2.88;1.17;;;17.40;87.20;;;;;;4969908;28;20022;-79
2022/10/09 02:56:58;;;;;;;1.42;0.80;;;17.40;87.20;;;;;;4969849;28;20426;-78
2022/10/09 02:59:23;;;;;;;1.35;0.80;;;17.40;87.20;;;;;;4970155;28;20054;-77
2022/10/09 03:01:49;;;;;;;1.02;0.82;;;17.40;87.30;;;;;;4969447;28;20121;-78
2022/10/09 03:04:14;;;;;;;1.92;1.00;;;17.40;87.20;;;;;;4970058;28;20035;-78
2022/10/09 03:06:40;;;;;;;1.10;0.88;;;17.40;87.10;;;;;;4969749;28;20133;-76
2022/10/09 03:09:05;;;;;;;2.28;1.10;;;17.40;87.00;;;;;;4969738;28;20069;-78
2022/10/09 03:11:31;;;;;;;1.10;0.80;;;17.40;87.00;;;;;;4987008;28;20031;-78
2022/10/09 03:13:57;;;;;;;1.10;0.80;;;17.40;86.90;;;;;;4969682;28;20019;-79
2022/10/09 03:16:24;;;;;;;2.45;1.08;;;17.40;86.80;;;;;;4970126;28;20126;-77
2022/10/09 03:18:51;;;;;;;2.13;1.00;;;17.40;86.80;;;;;;4970064;28;20030;-78
2022/10/09 03:21:22;;;;;;;1.35;0.88;;;17.40;86.80;;;;;;4969687;28;20026;-77
2022/10/09 03:23:48;;;;;;;1.60;0.98;;;17.40;86.70;;;;;;4969897;28;20178;-78
2022/10/09 03:26:16;;;;;;;1.40;0.80;;;17.40;86.70;;;;;;4987539;28;20038;-78
2022/10/09 03:28:45;;;;;;;2.67;1.10;;;17.40;86.80;;;;;;4969671;28;20030;-80
2022/10/09 03:31:11;;;;;;;0.82;0.80;;;17.40;86.90;;;;;;4969201;28;20065;-77
2022/10/09 03:33:36;;;;;;;1.05;0.77;;;17.40;86.90;;;;;;4987294;28;20058;-78
2022/10/09 03:36:03;;;;;;;1.50;0.90;;;17.40;87.00;;;;;;4986790;28;20030;-78
2022/10/09 03:38:29;;;;;;;2.50;1.10;;;17.40;87.00;;;;;;4969490;28;20085;-78
2022/10/09 03:40:57;;;;;;;1.33;0.93;;;17.30;87.00;;;;;;4985896;28;20038;-77
2022/10/09 03:43:23;;;;;;;1.20;0.85;;;17.30;87.00;;;;;;4969859;28;20034;-78
2022/10/09 03:45:49;;;;;;;1.75;0.80;;;17.30;87.10;;;;;;4969745;28;20054;-77
2022/10/09 03:48:15;;;;;;;2.53;1.02;;;17.30;87.00;;;;;;4969557;28;20036;-78
2022/10/09 03:50:41;;;;;;;1.98;0.98;;;17.30;87.10;;;;;;4969078;28;20031;-78
2022/10/09 03:53:09;;;;;;;2.25;1.05;;;17.30;87.10;;;;;;4986817;28;20031;-79
2022/10/09 03:55:35;;;;;;;1.52;0.90;;;17.30;87.00;;;;;;4969498;28;20118;-78
2022/10/09 03:58:00;;;;;;;1.35;0.80;;;17.30;86.90;;;;;;4969851;28;20124;-77
2022/10/09 04:00:26;;;;;;;2.20;1.08;;;17.40;87.10;;;;;;4972923;28;20022;-77
2022/10/09 04:02:52;;;;;;;1.05;0.70;;;17.30;87.10;;;;;;4990338;28;20431;-77
2022/10/09 04:05:17;;;;;;;1.83;1.00;;;17.30;87.00;;;;;;4973083;28;20372;-78
2022/10/09 04:07:43;;;;;;;1.90;1.05;;;17.30;86.90;;;;;;4972790;28;20066;-79
2022/10/09 04:10:09;;;;;;;2.55;1.00;;;17.30;86.90;;;;;;4990258;28;20033;-78
2022/10/09 04:12:35;;;;;;;2.25;1.10;;;17.40;86.80;;;;;;4972375;28;20034;-79
2022/10/09 04:15:00;;;;;;;1.40;0.90;;;17.40;86.80;;;;;;4972724;28;20062;-78
2022/10/09 04:17:26;;;;;;;1.17;0.90;;;17.40;86.60;;;;;;4972842;28;20201;-78
2022/10/09 04:19:51;;;;;;;1.88;1.10;;;17.40;86.50;;;;;;4972592;28;20053;-78
2022/10/09 04:22:17;;;;;;;1.65;0.90;;;17.40;86.60;;;;;;4989832;28;20069;-78
2022/10/09 04:24:43;;;;;;;2.28;0.98;;;17.40;86.50;;;;;;4972460;28;20026;-77
2022/10/09 04:27:08;;;;;;;2.20;0.90;;;17.30;86.50;;;;;;4972687;28;20056;-79
2022/10/09 04:29:33;;;;;;;3.42;1.20;;;17.30;86.60;;;;;;4972421;28;20041;-77
2022/10/09 04:32:00;;;;;;;1.80;1.00;;;17.30;86.80;;;;;;4989294;28;20027;-78
2022/10/09 04:34:25;;;;;;;2.03;1.00;;;17.30;86.80;;;;;;4972298;28;20026;-78
2022/10/09 04:36:51;;;;;;;1.48;0.93;;;17.30;86.80;;;;;;4989807;28;20029;-79
2022/10/09 04:39:16;;;;;;;1.50;0.80;;;17.30;86.80;;;;;;4989998;28;20088;-79
2022/10/09 04:41:42;;;;;;;1.73;0.90;;;17.30;86.90;;;;;;4971568;28;20076;-77
2022/10/09 04:44:07;;;;;;;1.73;1.00;;;17.30;86.90;;;;;;4972337;28;20276;-79
2022/10/09 04:46:33;;;;;;;1.50;0.90;;;17.30;86.90;;;;;;4970378;28;20026;-79
2022/10/09 04:48:58;;;;;;;2.22;1.00;;;17.30;86.90;;;;;;4989105;28;20057;-78
2022/10/09 04:51:24;;;;;;;2.60;1.00;;;17.30;86.90;;;;;;4971539;28;20030;-78
2022/10/09 04:53:49;;;;;;;2.38;0.90;;;17.30;86.90;;;;;;4989324;28;20023;-77
2022/10/09 04:56:18;;;;;;;1.45;0.95;;;17.30;86.90;;;;;;4971842;28;20070;-77
2022/10/09 04:58:44;;;;;;;1.70;1.00;;;17.20;86.90;;;;;;4972351;28;20019;-78
2022/10/09 05:01:20;;;;;;;2.33;1.00;;;17.30;86.90;;;;;;4987279;28;20153;-79
2022/10/09 05:03:46;;;;;;;2.75;1.42;;;17.30;86.90;;;;;;4988680;28;20029;-77
2022/10/09 05:06:13;;;;;;;1.48;0.90;;;17.30;86.90;;;;;;4971646;28;20087;-80
2022/10/09 05:08:39;;;;;;;1.73;0.80;;;17.30;86.80;;;;;;4971694;28;20041;-77
2022/10/09 05:11:08;;;;;;;1.40;0.77;;;17.30;86.70;;;;;;4989007;28;20027;-78
2022/10/09 05:13:35;;;;;;;1.83;0.90;;;17.30;86.60;;;;;;4971624;28;20023;-78
2022/10/09 05:16:03;;;;;;;2.15;0.95;;;17.30;86.50;;;;;;4971539;28;20026;-77
2022/10/09 05:18:29;;;;;;;1.55;1.00;;;17.30;86.40;;;;;;4971476;28;20077;-78
2022/10/09 05:20:54;;;;;;;1.17;0.80;;;17.30;86.40;;;;;;4971064;28;20494;-76
2022/10/09 05:23:20;;;;;;;1.58;1.00;;;17.30;86.40;;;;;;4971728;28;20065;-79
2022/10/09 05:25:56;;;;;;;1.77;1.10;;;17.30;86.50;;;;;;4971513;28;20121;-77
2022/10/09 05:28:22;;;;;;;1.33;0.93;;;17.30;86.60;;;;;;4971718;28;20030;-79
2022/10/09 05:30:48;;;;;;;1.25;0.93;;;17.30;86.70;;;;;;4971118;28;20089;-77
2022/10/09 05:33:13;;;;;;;1.17;0.82;;;17.30;86.60;;;;;;4971168;28;20061;-78
2022/10/09 05:35:39;;;;;;;2.13;1.10;;;17.30;86.70;;;;;;4971429;28;20034;-79
2022/10/09 05:38:04;;;;;;;1.30;0.82;;;17.30;86.70;;;;;;4971399;28;20030;-77
2022/10/09 05:40:30;;;;;;;1.98;1.00;;;17.20;86.70;;;;;;4988342;28;20042;-78
2022/10/09 05:42:55;;;;;;;2.00;1.08;;;17.30;86.70;;;;;;4988277;28;20053;-82
2022/10/09 05:45:21;;;;;;;1.67;1.02;;;17.20;86.70;;;;;;4971240;28;20018;-78
2022/10/09 05:47:47;;;;;;;1.40;0.88;;;17.20;86.70;;;;;;4988226;28;20034;-78
2022/10/09 05:50:12;;;;;;;1.65;0.90;;;17.20;86.80;;;;;;4971184;28;20068;-79
2022/10/09 05:52:38;;;;;;;1.98;1.02;;;17.20;86.80;;;;;;4988143;28;20495;-78
2022/10/09 05:55:05;;;;;;;2.38;1.08;;;17.20;86.80;;;;;;4970976;28;20018;-78
2022/10/09 05:57:31;;;;;;;1.25;1.00;;;17.20;86.70;;;;;;4970799;28;20570;-79
2022/10/09 05:59:56;;;;;;;1.63;0.90;;;17.30;86.80;;;;;;4970845;28;20116;-78
2022/10/09 06:02:22;;;;;;;1.83;1.08;;;17.20;86.70;;;;;;4967939;28;20053;-76
2022/10/09 06:04:48;;;;;;;1.48;0.95;;;17.20;86.70;;;;;;4981358;28;20517;-79
2022/10/09 06:07:13;;;;;;;1.38;0.90;;;17.30;86.50;;;;;;4988003;28;20512;-75
2022/10/09 06:09:39;;;;;;;1.38;1.00;;;17.30;86.40;;;;;;4971592;28;20528;-79
2022/10/09 06:12:05;;;;;;;1.35;0.95;;;17.30;86.30;;;;;;4971271;28;20092;-77
2022/10/09 06:14:30;;;;;;;1.75;0.93;;;17.30;86.20;;;;;;4988477;28;20022;-78
2022/10/09 06:16:57;;;;;;;1.08;0.82;;;17.30;86.00;;;;;;4988796;28;20545;-79
2022/10/09 06:19:23;;;;;;;1.90;0.88;;;17.40;85.90;;;;;;4989051;28;20026;-78
2022/10/09 06:21:49;;;;;;;1.20;0.90;;;17.40;86.00;;;;;;4970160;28;20034;-78
2022/10/09 06:24:21;;;;;;;1.88;1.20;;;17.40;85.90;;;;;;4988148;28;20022;-79
2022/10/09 06:26:46;;;;;;;1.80;0.93;;;17.40;85.80;;;;;;4970637;28;20026;-78
2022/10/09 06:29:12;;;;;;;1.90;0.95;;;17.40;85.80;;;;;;4988015;28;20125;-78
2022/10/09 06:31:37;;;;;;;1.40;0.95;;;17.40;85.70;;;;;;4969789;28;20114;-79
2022/10/09 06:34:03;;;;;;;2.20;1.10;;;17.40;85.60;;;;;;4970766;28;20803;-79
2022/10/09 06:36:32;;;;;;;1.65;0.93;;;17.40;85.60;;;;;;4970337;28;20022;-77
2022/10/09 06:39:03;;;;;;;1.20;0.90;;;17.40;85.60;;;;;;4987747;28;20026;-78
2022/10/09 06:41:29;;;;;;;2.80;1.00;;;17.50;85.60;;;;;;4969227;28;20030;-78
2022/10/09 06:43:57;;;;;;;1.63;0.90;;;17.50;85.40;;;;;;4969423;28;20026;-79
2022/10/09 06:46:25;;;;;;;1.48;0.90;;;17.50;85.10;;;;;;4986839;28;20117;-78
2022/10/09 06:48:51;;;;;;;2.47;1.08;;;17.50;85.00;;;;;;4985514;28;20022;-78
2022/10/09 06:51:19;;;;;;;2.35;1.10;;;17.60;84.90;;;;;;4983531;28;20034;-77
2022/10/09 06:53:47;;;;;;;1.92;1.20;;;17.60;84.70;;;;;;4989546;28;20104;-79
2022/10/09 06:56:14;;;;;;;1.85;1.00;;;17.60;84.50;;;;;;5006916;28;20478;-78
2022/10/09 06:58:40;;;;;;;2.17;1.20;;;17.70;84.50;;;;;;5006575;28;20370;-78
2022/10/09 07:01:11;;;;;;;1.65;1.00;;;17.70;84.30;;;;;;4968212;28;20029;-78
2022/10/09 07:03:38;;;;;;;1.67;1.10;;;17.70;84.20;;;;;;4969829;28;20717;-80
2022/10/09 07:06:11;;;;;;;1.55;1.00;;;17.80;84.10;;;;;;4970222;28;20034;-76
2022/10/09 07:08:41;;;;;;;1.67;1.23;;;17.80;83.90;;;;;;4969742;28;20474;-78
2022/10/09 07:11:09;;;;;;;1.80;1.08;;;17.80;83.70;;;;;;4969044;28;20027;-77
2022/10/09 07:13:35;;;;;;;2.25;1.02;;;17.90;83.60;;;;;;4969959;28;20080;-79
2022/10/09 07:16:00;;;;;;;1.50;1.00;;;17.90;83.50;;;;;;4986992;28;20129;-78
2022/10/09 07:18:26;;;;;;;1.80;1.10;;;17.90;83.30;;;;;;4986968;28;20019;-78
2022/10/09 07:20:51;;;;;;;1.88;1.15;;;17.90;83.20;;;;;;4986198;28;20030;-78
2022/10/09 07:23:17;;;;;;;1.58;1.00;;;18.00;83.20;;;;;;4969536;28;20030;-77
2022/10/09 07:25:42;;;;;;;1.67;0.95;;;17.90;83.10;;;;;;4969273;28;21006;-78
2022/10/09 07:28:08;;;;;;;2.15;1.02;;;18.00;83.10;;;;;;4969229;28;20026;-76
2022/10/09 07:30:37;;;;;;;1.30;0.90;;;18.00;83.20;;;;;;4969696;28;20644;-76
2022/10/09 07:33:02;;;;;;;2.15;1.00;;;18.00;83.10;;;;;;4969875;28;20022;-76
2022/10/09 07:35:28;;;;;;;2.08;1.20;;;18.00;83.00;;;;;;4990565;28;20033;-78
2022/10/09 07:37:54;;;;;;;1.58;1.00;;;18.00;82.90;;;;;;4973167;28;20070;-78
2022/10/09 07:40:19;;;;;;;1.77;1.17;;;18.10;82.90;;;;;;4972971;28;20070;-78
2022/10/09 07:42:45;;;;;;;2.05;1.08;;;18.00;82.70;;;;;;4972917;28;20030;-77
2022/10/09 07:45:10;;;;;;;1.70;1.10;;;18.20;82.70;;;;;;4972995;28;20039;-78
2022/10/09 07:47:36;;;;;;;1.35;1.10;;;18.20;82.50;;;;;;4989691;28;20038;-78
2022/10/09 07:50:01;;;;;;;2.08;1.20;;;18.20;82.40;;;;;;4973382;28;20026;-79
2022/10/09 07:52:27;;;;;;;1.83;1.10;;;18.20;82.30;;;;;;4972458;28;20049;-77
2022/10/09 07:54:55;;;;;;;1.55;1.00;;;18.30;82.20;;;;;;4972678;28;20018;-78
2022/10/09 07:57:21;;;;;;;1.48;1.00;;;18.30;82.10;;;;;;4989035;28;20108;-79
2022/10/09 07:59:46;;;;;;;1.77;1.20;;;18.40;82.00;;;;;;4972507;28;20518;-79
2022/10/09 08:02:11;;;;;;;1.80;1.00;;;18.40;81.90;;;;;;4988642;28;20077;-79
2022/10/09 08:04:37;;;;;;;2.88;1.30;;;18.40;81.80;;;;;;4990029;28;20026;-78
2022/10/09 08:07:03;;;;;;;1.50;1.02;;;18.40;81.50;;;;;;4972253;28;20555;-77
2022/10/09 08:09:28;;;;;;;1.90;1.13;;;18.50;81.40;;;;;;4990160;28;20085;-79
2022/10/09 08:11:54;;;;;;;2.03;1.10;;;18.60;81.30;;;;;;4989149;28;20585;-78
2022/10/09 08:14:19;;;;;;;2.00;1.13;;;18.60;81.20;;;;;;4972466;28;20023;-78
2022/10/09 08:16:45;;;;;;;1.88;1.13;;;18.60;81.00;;;;;;4971710;28;20034;-78
2022/10/09 08:19:11;;;;;;;2.15;1.20;;;18.60;81.00;;;;;;4990105;28;20101;-77
2022/10/09 08:21:37;;;;;;;1.70;1.10;;;18.60;80.90;;;;;;4988266;28;20173;-78
2022/10/09 08:24:02;;;;;;;1.58;1.10;;;18.60;80.80;;;;;;4972650;28;20030;-79
2022/10/09 08:26:29;;;;;;;1.75;1.05;;;18.70;80.80;;;;;;4972138;28;20037;-77
2022/10/09 08:29:00;;;;;;;1.70;1.02;;;18.70;80.70;;;;;;4988580;28;20040;-78
2022/10/09 08:31:26;;;;;;;1.30;1.10;;;18.70;80.60;;;;;;4972240;28;20545;-79
2022/10/09 08:33:53;;;;;;;2.38;1.38;;;18.70;80.60;;;;;;4989693;28;20274;-79
2022/10/09 08:36:20;;;;;;;1.60;1.10;;;18.70;80.70;;;;;;4989762;28;20038;-78
2022/10/09 08:38:46;;;;;;;1.90;1.20;;;18.70;80.70;;;;;;4972319;28;20655;-79
2022/10/09 08:41:17;;;;;;;1.88;1.10;;;18.70;80.70;;;;;;4971557;28;20097;-78
2022/10/09 08:44:00;;;;;;;1.83;1.10;;;18.80;80.70;;;;;;4989222;28;20030;-79
2022/10/09 08:46:52;;;;;;;2.78;1.30;;;18.80;80.60;;;;;;4971850;28;20035;-77
2022/10/09 08:49:25;;;;;;;1.63;1.13;;;18.80;80.60;;;;;;4963898;28;20048;-78
2022/10/09 08:51:51;;;;;;;1.98;1.13;;;18.80;80.50;;;;;;4990902;28;20069;-78
2022/10/09 08:54:34;;;;;;;2.17;1.25;;;18.80;80.40;;;;;;5008737;28;20030;-79
2022/10/09 08:57:03;;;;;;;2.60;1.20;;;18.80;80.30;;;;;;4991180;28;20423;-77
2022/10/09 08:59:30;;;;;;;1.80;1.20;;;18.90;80.40;;;;;;5008652;28;20026;-77
2022/10/09 09:02:01;;;;;;;1.40;1.10;;;18.90;80.30;;;;;;4990913;28;20068;-78
2022/10/09 09:05:01;;;;;;;1.33;1.08;;;18.90;80.30;;;;;;5008902;28;20520;-77
2022/10/09 09:07:44;;;;;;;1.60;1.08;;;18.90;80.20;;;;;;4990846;28;20042;-78
2022/10/09 09:10:28;;;;;;;2.58;1.40;;;18.90;80.20;;;;;;4991187;28;20029;-78
2022/10/09 09:13:11;;;;;;;1.98;1.10;;;18.90;80.20;;;;;;5008212;28;20506;-77
2022/10/09 09:15:49;;;;;;;1.70;1.13;;;18.90;80.10;;;;;;4991128;28;20018;-78
2022/10/09 09:18:17;;;;;;;2.30;1.30;;;19.00;80.30;;;;;;5008624;28;20159;-78
2022/10/09 09:20:54;;;;;;;2.00;1.20;;;18.90;80.30;;;;;;4990883;28;20113;-78
2022/10/09 09:23:31;;;;;;;1.73;1.05;;;18.90;80.40;;;;;;4990314;28;20073;-78
2022/10/09 09:25:58;;;;;;;1.83;1.17;;;18.90;80.40;;;;;;4990787;28;20036;-78
2022/10/09 09:28:29;;;;;;;2.42;1.20;;;18.90;80.40;;;;;;4990633;28;20033;-79
2022/10/09 09:31:15;;;;;;;;;;;18.90;80.50;;;;;;4990446;28;20099;-79
2022/10/09 09:34:02;;;;;;;2.13;1.30;;;18.90;80.50;;;;;;4989339;28;20196;-79
2022/10/09 09:36:54;;;;;;;2.42;1.10;;;18.90;80.60;;;;;;4990513;28;20033;-79
2022/10/09 09:39:23;;;;;;;2.58;1.27;;;18.90;80.60;;;;;;4990027;28;20038;-78
2022/10/09 09:41:48;;;;;;;1.70;1.20;;;18.90;80.60;;;;;;4989852;28;20034;-78
2022/10/09 09:44:16;;;;;;;2.15;1.10;;;19.00;80.60;;;;;;4990328;28;20036;-79
2022/10/09 09:46:44;;;;;;;2.08;1.27;;;19.00;80.50;;;;;;4990514;28;20034;-77
2022/10/09 09:49:18;;;;;;;1.95;1.17;;;19.00;80.50;;;;;;5008581;28;20100;-79
2022/10/09 09:51:46;;;;;;;1.67;1.15;;;19.00;80.50;;;;;;4989741;28;20029;-78
2022/10/09 09:54:21;;;;;;;5.07;1.58;;;19.00;80.30;;;;;;4981354;28;20073;-78
2022/10/09 09:56:48;;;;;;;8.27;1.77;;;19.00;80.00;;;;;;4986137;28;20895;-77
2022/10/09 09:59:41;;;;;;;22.95;3.72;;;18.90;79.30;;;;;;4970364;28;20029;-77
2022/10/09 10:02:18;;;;;;;15.55;2.50;;;19.00;78.70;;;;;;4987242;28;20026;-80
2022/10/09 10:05:13;;;;;;;8.88;2.28;;;19.00;78.60;;;;;;4970934;28;20030;-79
2022/10/09 10:07:38;;;;;;;10.07;2.70;;;19.00;78.50;;;;;;4969724;28;20037;-79
2022/10/09 10:10:21;;;;;;;16.00;2.80;;;19.10;78.50;;;;;;4970137;28;20038;-77
2022/10/09 10:12:58;;;;;;;13.43;3.40;;;19.10;78.50;;;;;;4969374;28;20026;-77
2022/10/09 10:15:31;;;;;;;15.98;2.63;;;19.10;79.10;;;;;;4987605;28;20054;-79
2022/10/09 10:18:06;;;;;;;10.77;2.40;;;19.10;78.70;;;;;;4969855;28;20804;-79
2022/10/09 10:20:40;;;;;;;10.10;2.53;;;19.10;78.80;;;;;;4987428;28;20109;-79
2022/10/09 10:23:21;;;;;;;8.40;1.88;;;19.10;79.10;;;;;;4969943;28;20022;-79
2022/10/09 10:25:47;;;;;;;9.50;2.10;;;19.20;79.20;;;;;;4986684;28;20069;-77
2022/10/09 10:28:19;;;;;;;11.00;2.55;;;19.20;79.00;;;;;;4985063;28;20081;-78
2022/10/09 10:30:47;;;;;;;8.57;2.33;;;19.20;79.20;;;;;;4968829;28;20096;-78
2022/10/09 10:33:23;;;;;;;8.73;2.08;;;19.30;79.60;;;;;;4985797;28;20022;-78
2022/10/09 10:35:52;;;;;;;10.02;2.00;;;19.50;80.30;;;;;;4986907;28;20034;-78
2022/10/09 10:38:22;;;;;;;7.50;1.90;;;19.60;80.40;;;;;;4968925;28;20033;-77
2022/10/09 10:41:12;;;;;;;9.68;2.50;;;19.70;80.30;;;;;;4986006;28;20030;-78
2022/10/09 10:43:43;;;;;;;9.00;2.22;;;19.80;80.50;;;;;;5000909;23;20069;-84
2022/10/09 10:46:31;;;;;;;6.32;2.10;;;20.00;80.60;;;;;;4996024;28;20385;-84
2022/10/09 10:48:58;;;;;;;8.43;2.20;;;20.10;80.70;;;;;;4995916;28;20029;-84
2022/10/09 10:51:45;;;;;;;7.60;1.80;;;20.10;80.60;;;;;;4995733;28;20040;-85
2022/10/09 10:54:47;;;;;;;9.38;1.98;;;20.20;80.80;;;;;;4995872;28;20120;-84
2022/10/09 10:57:50;;;;;;;8.00;2.15;;;20.30;80.50;;;;;;4996287;28;20113;-85
2022/10/09 11:00:16;;;;;;;9.52;2.05;;;20.40;80.80;;;;;;5013881;28;20543;-84
2022/10/09 11:02:57;;;;;;;7.93;2.03;;;20.50;80.60;;;;;;4995709;28;20033;-84
2022/10/09 11:05:45;;;;;;;7.57;1.90;;;20.50;80.50;;;;;;4995856;28;20041;-84
2022/10/09 11:08:35;;;;;;;7.72;1.77;;;20.50;80.00;;;;;;4998214;28;20030;-83
2022/10/09 11:11:26;;;;;;;8.48;2.15;;;20.60;80.00;;;;;;4999670;28;20397;-85
2022/10/09 11:14:07;;;;;;;7.97;2.15;;;20.50;79.90;;;;;;5017305;28;20029;-85
2022/10/09 11:16:44;;;;;;;8.38;2.17;;;20.60;80.10;;;;;;4999663;28;20033;-84
2022/10/09 11:19:20;;;;;;;7.47;1.98;;;20.60;79.90;;;;;;4999728;28;20478;-84
2022/10/09 11:21:58;;;;;;;9.15;2.58;;;20.60;79.70;;;;;;4999562;28;20034;-85
2022/10/09 11:24:46;;;;;;;8.27;2.10;;;20.60;79.80;;;;;;4999569;28;20513;-84
2022/10/09 11:27:31;;;;;;;10.40;2.28;;;20.50;80.20;;;;;;4999564;28;20121;-84
2022/10/09 11:30:12;;;;;;;7.53;1.92;;;20.30;80.70;;;;;;4999351;28;20028;-84
2022/10/09 11:33:01;;;;;;;8.10;2.55;;;20.20;81.30;;;;;;4999083;28;20108;-84
2022/10/09 11:35:41;;;;;;;8.52;2.20;;;20.10;81.40;;;;;;4999464;28;20026;-85
2022/10/09 11:38:23;;;;;;;6.03;1.88;;;20.00;81.50;;;;;;4999423;28;20049;-85
2022/10/09 11:40:48;;;;;;;7.90;1.83;;;20.00;81.60;;;;;;4999279;28;20025;-86
2022/10/09 11:43:38;;;;;;;5.40;1.75;;;20.00;81.70;;;;;;5017001;28;20092;-85
2022/10/09 11:46:42;;;;;;;7.78;2.60;;;19.90;81.70;;;;;;4999432;28;20061;-84
2022/10/09 11:49:10;;;;;;;6.40;1.80;;;19.90;81.80;;;;;;4993030;28;20033;-85
2022/10/09 11:51:48;;;;;;;7.05;1.85;;;19.90;81.80;;;;;;4998925;28;20033;-85
2022/10/09 11:54:17;;;;;;;6.53;1.83;;;19.90;81.80;;;;;;5016452;28;20072;-85
2022/10/09 11:56:57;;;;;;;6.78;1.80;;;19.90;81.70;;;;;;5016952;28;20026;-84
2022/10/09 11:59:30;;;;;;;6.05;1.75;;;19.90;81.70;;;;;;4999276;28;20072;-85
2022/10/09 12:02:12;;;;;;;6.88;2.10;;;19.90;81.80;;;;;;4998679;28;20104;-85
2022/10/09 12:04:38;;;;;;;5.28;1.60;;;19.80;81.70;;;;;;5016798;28;20022;-85
2022/10/09 12:07:08;;;;;;;6.40;1.75;;;19.80;81.90;;;;;;4998965;28;20033;-84
2022/10/09 12:09:41;;;;;;;6.25;1.80;;;19.70;82.00;;;;;;4998800;28;20022;-84
2022/10/09 12:12:27;;;;;;;6.38;1.77;;;19.70;82.10;;;;;;4998530;28;20022;-84
2022/10/09 12:14:53;;;;;;;9.27;2.13;;;19.70;82.10;;;;;;4997892;28;20068;-84
2022/10/09 12:17:21;;;;;;;6.05;1.75;;;19.60;82.20;;;;;;4998794;28;20033;-86
2022/10/09 12:19:54;;;;;;;7.35;1.80;;;19.60;82.20;;;;;;4998074;28;20033;-84
2022/10/09 12:22:30;;;;;;;5.22;1.42;;;19.60;82.30;;;;;;5016219;28;20025;-85
2022/10/09 12:24:58;;;;;;;7.90;1.70;;;19.50;82.30;;;;;;4998506;28;20486;-85
2022/10/09 12:27:32;;;;;;;6.45;1.60;;;19.60;82.30;;;;;;4998345;28;20022;-85
2022/10/09 12:30:35;;;;;;;6.47;1.40;;;19.50;82.20;;;;;;5015831;28;20030;-85
2022/10/09 12:33:22;;;;;;;6.78;1.77;;;19.50;82.20;;;;;;4976305;28;20080;-85
2022/10/09 12:36:05;;;;;;;6.68;1.73;;;19.50;82.30;;;;;;5015959;28;20049;-84
2022/10/09 12:38:31;;;;;;;5.47;1.70;;;19.50;82.30;;;;;;4998509;28;20121;-85
2022/10/09 12:41:01;;;;;;;5.78;1.80;;;19.50;82.40;;;;;;4998389;28;20095;-85
2022/10/09 12:43:28;;;;;;;6.78;1.45;;;19.50;82.20;;;;;;4998284;28;20034;-84
2022/10/09 12:45:54;;;;;;;5.88;1.60;;;19.50;82.20;;;;;;4998549;28;20026;-84
2022/10/09 12:48:24;;;;;;;5.15;1.60;;;19.50;82.10;;;;;;5015788;28;20018;-85
2022/10/09 12:50:51;;;;;;;5.90;1.73;;;19.50;82.10;;;;;;5015407;28;20021;-84
2022/10/09 12:53:22;;;;;;;6.72;1.85;;;19.50;82.10;;;;;;5015608;28;20488;-84
2022/10/09 12:55:59;;;;;;;6.50;1.75;;;19.50;82.10;;;;;;4997649;28;20478;-85
2022/10/09 12:58:26;;;;;;;5.57;1.90;;;19.40;82.10;;;;;;4998261;28;20383;-84
2022/10/09 13:01:01;;;;;;;6.47;1.60;;;19.40;82.10;;;;;;4997805;28;20096;-83
2022/10/09 13:03:39;;;;;;;5.38;1.55;;;19.40;82.30;;;;;;4997742;28;20573;-84